Time;durP1;ratioP1;P1;durP2;ratioP2;P2;SDS_P1;SDS_P2;PMS_P1;PMS_P2;Temp;Humidity;BMP_temperature;BMP_pressure;BME280_temperature;BME280_humidity;BME280_pressure;Samples;Min_cycle;Max_cycle;Signal;HPM_P1;HPM_P2
2023/05/21 00:00:50;;;;;;;1.00;1.00;;;;;;;13.90;100.00;96726.59;5065427;28;20048;-58
2023/05/21 00:03:17;;;;;;;1.02;1.02;;;;;;;13.94;100.00;96744.91;5065089;28;20060;-59
2023/05/21 00:05:45;;;;;;;1.10;1.10;;;;;;;14.11;100.00;96746.09;5065385;28;20055;-59
2023/05/21 00:08:13;;;;;;;1.00;1.00;;;;;;;14.17;100.00;96755.63;5065157;28;20055;-59
2023/05/21 00:10:39;;;;;;;1.10;1.10;;;;;;;13.97;100.00;96712.69;5065336;28;20049;-59
2023/05/21 00:13:07;;;;;;;1.10;1.10;;;;;;;13.62;100.00;96625.25;5063789;28;20059;-60
2023/05/21 00:15:34;;;;;;;1.20;1.20;;;;;;;14.35;100.00;96750.84;5064892;28;20422;-59
2023/05/21 00:18:02;;;;;;;1.23;1.23;;;;;;;14.38;100.00;96741.69;5064790;28;20087;-59
2023/05/21 00:20:31;;;;;;;1.17;1.17;;;;;;;13.82;100.00;96655.44;5063332;28;20048;-60
2023/05/21 00:22:58;;;;;;;1.20;1.20;;;;;;;14.47;100.00;96736.47;5064582;28;20057;-59
2023/05/21 00:25:25;;;;;;;1.13;1.13;;;;;;;14.02;100.00;96695.59;5064736;28;20521;-59
2023/05/21 00:27:53;;;;;;;1.10;1.10;;;;;;;14.41;100.00;96724.16;5064267;28;20055;-60
2023/05/21 00:30:19;;;;;;;1.20;1.20;;;;;;;14.29;100.00;96730.19;5064462;28;20493;-60
2023/05/21 00:32:46;;;;;;;1.15;1.15;;;;;;;14.53;100.00;96734.84;5064298;28;20438;-59
2023/05/21 00:35:13;;;;;;;1.17;1.17;;;;;;;14.51;100.00;96720.56;5062956;28;20053;-59
2023/05/21 00:37:40;;;;;;;1.10;1.10;;;;;;;13.85;100.00;96626.81;5063098;28;20056;-59
2023/05/21 00:40:08;;;;;;;1.25;1.25;;;;;;;14.44;100.00;96737.28;5062946;28;20082;-59
2023/05/21 00:42:38;;;;;;;1.10;1.10;;;;;;;14.14;100.00;96684.00;5064248;28;20052;-60
2023/05/21 00:45:06;;;;;;;1.20;1.20;;;;;;;14.34;100.00;96704.66;5064508;28;20055;-59
2023/05/21 00:47:34;;;;;;;1.17;1.17;;;;;;;14.23;100.00;96715.00;5064299;28;20044;-60
2023/05/21 00:50:02;;;;;;;1.17;1.17;;;;;;;14.31;100.00;96711.03;5064353;28;20059;-59
2023/05/21 00:52:29;;;;;;;1.20;1.20;;;;;;;14.31;100.00;96709.06;5086845;28;20047;-59
2023/05/21 00:54:56;;;;;;;1.10;1.10;;;;;;;14.23;100.00;96703.88;5103460;28;20253;-60
2023/05/21 00:57:26;;;;;;;1.08;1.08;;;;;;;14.34;100.00;96696.31;5102827;28;20055;-60
2023/05/21 00:59:53;;;;;;;1.10;1.10;;;;;;;14.32;100.00;96695.94;5103814;28;20073;-59
2023/05/21 01:02:22;;;;;;;1.20;1.20;;;;;;;14.18;100.00;96701.53;5104309;28;20054;-59
2023/05/21 01:04:53;;;;;;;1.02;1.02;;;;;;;14.08;100.00;96705.13;5105027;28;20075;-59
2023/05/21 01:07:20;;;;;;;1.27;1.27;;;;;;;14.22;100.00;96688.38;5103258;28;20532;-60
2023/05/21 01:09:47;;;;;;;1.20;1.20;;;;;;;14.03;100.00;96691.59;5104832;28;20043;-59
2023/05/21 01:12:16;;;;;;;1.10;1.10;;;;;;;14.01;100.00;96680.84;5104559;28;20051;-59
2023/05/21 01:14:43;;;;;;;1.10;1.10;;;;;;;13.93;100.00;96686.81;5104534;28;20418;-59
2023/05/21 01:17:11;;;;;;;1.00;1.00;;;;;;;14.04;100.00;96684.81;5105102;28;20055;-59
2023/05/21 01:19:38;;;;;;;1.10;1.10;;;;;;;14.10;100.00;96683.22;5102828;28;20127;-59
2023/05/21 01:22:06;;;;;;;1.10;1.10;;;;;;;14.16;100.00;96681.63;5104025;28;20048;-60
2023/05/21 01:24:33;;;;;;;1.20;1.20;;;;;;;14.19;100.00;96675.25;5104560;28;20055;-59
2023/05/21 01:27:02;;;;;;;1.20;1.20;;;;;;;14.19;100.00;96666.88;5103147;28;20089;-59
2023/05/21 01:29:28;;;;;;;1.30;1.30;;;;;;;14.03;100.00;96633.09;5104356;28;20059;-61
2023/05/21 01:32:15;;;;;;;1.20;1.20;;;;;;;14.23;100.00;96682.38;5104158;28;20051;-58
2023/05/21 01:34:54;;;;;;;1.10;1.10;;;;;;;14.28;100.00;96678.41;5102613;28;20049;-59
2023/05/21 01:37:47;;;;;;;1.13;1.13;;;;;;;13.87;100.00;96643.88;5104048;28;20056;-59
2023/05/21 01:40:20;;;;;;;1.10;1.10;;;;;;;14.11;100.00;96679.25;5104190;28;20084;-60
2023/05/21 01:42:47;;;;;;;1.10;1.10;;;;;;;13.85;100.00;96626.81;5104465;28;20047;-59
2023/05/21 01:45:15;;;;;;;1.20;1.20;;;;;;;14.17;100.00;96672.06;5104043;28;20054;-59
2023/05/21 01:47:46;;;;;;;1.13;1.13;;;;;;;14.15;100.00;96668.88;5102940;28;20123;-59
2023/05/21 01:50:14;;;;;;;1.23;1.23;;;;;;;14.36;98.45;96663.25;5104658;28;20048;-59
2023/05/21 01:52:50;;;;;;;1.20;1.20;;;;;;;14.50;97.89;96660.41;5086698;28;20051;-59
2023/05/21 01:55:17;;;;;;;1.23;1.23;;;;;;;14.67;95.92;96662.31;5062534;28;20057;-59
2023/05/21 01:57:44;;;;;;;1.20;1.20;;;;;;;14.79;94.37;96664.66;5063235;28;20048;-60
2023/05/21 02:00:12;;;;;;;1.13;1.13;;;;;;;14.68;94.99;96655.56;5063505;28;20052;-60
2023/05/21 02:02:39;;;;;;;1.10;1.10;;;;;;;14.74;93.43;96665.88;5063431;28;20052;-60
2023/05/21 02:05:07;;;;;;;1.13;1.13;;;;;;;14.56;92.36;96616.97;5063062;28;20591;-59
2023/05/21 02:07:34;;;;;;;1.20;1.20;;;;;;;14.72;94.40;96664.69;5063304;28;20049;-60
2023/05/21 02:10:00;;;;;;;1.30;1.30;;;;;;;14.74;94.08;96668.69;5064251;28;20045;-59
2023/05/21 02:12:28;;;;;;;1.20;1.20;;;;;;;14.26;94.83;96619.50;5067051;28;20048;-59
2023/05/21 02:14:55;;;;;;;1.30;1.30;;;;;;;14.38;93.74;96633.81;5066952;28;20075;-58
2023/05/21 02:17:23;;;;;;;1.20;1.20;;;;;;;14.77;92.65;96678.22;5066690;28;20048;-59
2023/05/21 02:19:49;;;;;;;1.40;1.40;;;;;;;14.83;92.04;96674.59;5066739;28;20044;-59
2023/05/21 02:22:16;;;;;;;1.25;1.25;;;;;;;14.93;91.12;96686.88;5066518;28;20059;-59
2023/05/21 02:24:43;;;;;;;1.35;1.35;;;;;;;15.03;88.86;96680.47;5082125;28;20102;-58
2023/05/21 02:27:12;;;;;;;1.10;1.10;;;;;;;15.24;86.28;96674.72;5066825;28;20120;-59
2023/05/21 02:29:38;;;;;;;1.30;1.30;;;;;;;14.90;85.62;96616.00;5082090;28;20056;-61
2023/05/21 02:32:05;;;;;;;1.30;1.30;;;;;;;15.45;83.45;96680.19;5066227;28;20511;-59
2023/05/21 02:34:33;;;;;;;1.50;1.50;;;;;;;15.43;83.50;96654.69;5065400;28;20078;-59
2023/05/21 02:37:00;;;;;;;1.33;1.33;;;;;;;15.52;80.13;96668.97;5066108;28;20572;-59
2023/05/21 02:39:27;;;;;;;1.35;1.35;;;;;;;15.86;77.40;96671.84;5066556;28;20569;-59
2023/05/21 02:41:53;;;;;;;1.30;1.30;;;;;;;15.65;77.07;96605.03;5066207;28;20048;-59
2023/05/21 02:44:22;;;;;;;1.42;1.42;;;;;;;16.17;74.88;96654.75;5066420;28;20056;-59
2023/05/21 02:46:49;;;;;;;1.55;1.55;;;;;;;16.03;73.00;96615.00;5080710;28;20132;-59
2023/05/21 02:49:16;;;;;;;1.42;1.42;;;;;;;16.30;71.25;96619.47;5065075;28;20438;-58
2023/05/21 02:51:42;;;;;;;1.55;1.55;;;;;;;16.67;69.89;96671.78;5087925;27;20621;-59
2023/05/21 02:54:09;;;;;;;1.60;1.60;;;;;;;16.80;68.80;96663.63;5104043;28;20073;-59
2023/05/21 02:56:36;;;;;;;1.50;1.50;;;;;;;16.85;69.47;96660.34;5105461;28;20469;-59
2023/05/21 02:59:02;;;;;;;1.50;1.50;;;;;;;16.84;69.71;96667.13;5105381;28;20059;-60
2023/05/21 03:01:29;;;;;;;1.40;1.40;;;;;;;16.83;70.22;96657.19;5106776;28;20048;-59
2023/05/21 03:03:56;;;;;;;1.58;1.58;;;;;;;16.93;69.64;96656.25;5106779;28;20055;-59
2023/05/21 03:06:22;;;;;;;1.40;1.40;;;;;;;16.95;68.42;96665.78;5106461;28;20052;-60
2023/05/21 03:08:49;;;;;;;1.52;1.52;;;;;;;16.54;68.13;96589.63;5106713;28;20055;-60
2023/05/21 03:11:17;;;;;;;1.40;1.40;;;;;;;17.04;68.51;96659.69;5106294;27;20130;-61
2023/05/21 03:13:44;;;;;;;1.52;1.52;;;;;;;17.16;68.71;96661.91;5106572;28;20053;-59
2023/05/21 03:16:11;;;;;;;1.48;1.48;;;;;;;17.14;68.77;96659.53;5106226;28;20047;-60
2023/05/21 03:18:38;;;;;;;1.70;1.70;;;;;;;17.10;68.15;96666.38;5106461;28;20542;-59
2023/05/21 03:21:04;;;;;;;1.42;1.42;;;;;;;17.11;69.14;96663.16;5106219;28;20073;-59
2023/05/21 03:23:31;;;;;;;1.60;1.60;;;;;;;17.13;69.69;96665.53;5105832;28;20084;-60
2023/05/21 03:25:58;;;;;;;1.70;1.70;;;;;;;17.07;69.79;96672.84;5104861;28;20079;-60
2023/05/21 03:28:24;;;;;;;1.80;1.80;;;;;;;16.84;68.74;96625.19;5104798;28;20050;-61
2023/05/21 03:30:52;;;;;;;1.60;1.60;;;;;;;17.15;69.00;96675.09;5106211;28;20044;-59
2023/05/21 03:33:18;;;;;;;1.80;1.80;;;;;;;17.16;69.67;96667.50;5104303;28;20064;-59
2023/05/21 03:35:45;;;;;;;1.50;1.50;;;;;;;17.24;70.07;96661.38;5106122;28;20052;-60
2023/05/21 03:38:12;;;;;;;1.70;1.70;;;;;;;17.16;69.84;96642.31;5106284;28;20213;-59
2023/05/21 03:40:38;;;;;;;1.70;1.70;;;;;;;16.80;70.28;96588.09;5106157;28;20060;-59
2023/05/21 03:43:05;;;;;;;1.90;1.90;;;;;;;17.31;71.17;96661.25;5105876;28;20058;-59
2023/05/21 03:45:32;;;;;;;1.63;1.63;;;;;;;17.28;71.50;96681.69;5105382;28;20052;-59
2023/05/21 03:48:00;;;;;;;1.77;1.77;;;;;;;17.26;71.49;96670.13;5104105;28;20043;-58
2023/05/21 03:50:27;;;;;;;1.60;1.60;;;;;;;17.37;70.67;96669.97;5104256;28;20057;-59
2023/05/21 03:52:54;;;;;;;1.58;1.58;;;;;;;16.64;69.02;96544.72;5091680;27;20055;-60
2023/05/21 03:55:21;;;;;;;1.60;1.60;;;;;;;17.25;67.89;96656.56;5085127;28;20055;-59
2023/05/21 03:57:47;;;;;;;1.55;1.55;;;;;;;16.90;68.04;96589.94;5085524;28;20044;-59
2023/05/21 04:00:14;;;;;;;1.70;1.70;;;;;;;17.41;67.91;96665.09;5083594;28;20052;-59
2023/05/21 04:02:41;;;;;;;1.60;1.60;;;;;;;17.56;67.57;96661.69;5085090;28;20476;-60
2023/05/21 04:05:08;;;;;;;1.50;1.50;;;;;;;17.44;66.98;96647.44;5085108;28;20083;-59
2023/05/21 04:07:37;;;;;;;1.80;1.80;;;;;;;17.47;67.31;96655.03;5083485;28;20051;-60
2023/05/21 04:10:04;;;;;;;1.77;1.77;;;;;;;17.62;66.77;96665.59;5085195;28;20048;-60
2023/05/21 04:12:30;;;;;;;1.40;1.40;;;;;;;17.67;65.17;96672.72;5084987;28;20056;-60
2023/05/21 04:14:57;;;;;;;1.88;1.88;;;;;;;17.70;65.12;96672.66;5085204;28;20051;-59
2023/05/21 04:17:25;;;;;;;1.70;1.70;;;;;;;17.22;64.42;96579.03;5084756;28;20516;-59
2023/05/21 04:19:53;;;;;;;1.70;1.70;;;;;;;17.79;64.23;96669.31;5084757;28;20052;-60
2023/05/21 04:22:20;;;;;;;1.50;1.50;;;;;;;17.81;60.73;96669.69;5083189;28;20060;-60
2023/05/21 04:24:47;;;;;;;1.60;1.60;;;;;;;17.93;61.74;96675.47;5084736;28;20412;-60
2023/05/21 04:27:15;;;;;;;1.88;1.88;;;;;;;18.06;61.28;96670.84;5084770;28;20071;-59
2023/05/21 04:29:42;;;;;;;1.60;1.60;;;;;;;18.07;58.57;96680.00;5085100;28;20131;-60
2023/05/21 04:32:08;;;;;;;1.67;1.67;;;;;;;18.18;57.80;96672.19;5084392;28;20606;-59
2023/05/21 04:34:35;;;;;;;1.77;1.77;;;;;;;17.99;58.92;96640.13;5099863;28;20469;-59
2023/05/21 04:37:02;;;;;;;1.50;1.50;;;;;;;18.39;54.98;96674.63;5084312;28;20520;-59
2023/05/21 04:39:30;;;;;;;1.85;1.85;;;;;;;18.42;55.92;96679.38;5083183;28;20533;-60
2023/05/21 04:41:56;;;;;;;1.70;1.70;;;;;;;18.42;53.84;96667.38;5084267;28;20082;-59
2023/05/21 04:44:23;;;;;;;1.80;1.80;;;;;;;18.20;53.52;96622.09;5083053;28;20077;-60
2023/05/21 04:46:51;;;;;;;2.05;2.05;;;;;;;18.51;52.42;96670.41;5084135;28;20044;-60
2023/05/21 04:49:19;;;;;;;1.80;1.80;;;;;;;18.44;52.44;96676.94;5084516;28;20537;-59
2023/05/21 04:51:48;;;;;;;1.80;1.80;;;;;;;18.51;50.59;96671.19;5086500;28;20050;-60
2023/05/21 04:54:14;;;;;;;1.70;1.70;;;;;;;18.01;50.29;96583.63;5103414;28;20137;-60
2023/05/21 04:56:41;;;;;;;1.60;1.60;;;;;;;18.55;49.50;96660.69;5104565;28;20047;-61
2023/05/21 04:59:08;;;;;;;1.60;1.60;;;;;;;18.60;50.76;96668.63;5104443;28;20438;-60
2023/05/21 05:01:37;;;;;;;1.80;1.80;;;;;;;18.72;50.63;96721.28;5104208;28;20047;-60
2023/05/21 05:04:04;;;;;;;1.90;1.90;;;;;;;18.80;50.41;96682.63;5104350;28;20087;-62
2023/05/21 05:06:31;;;;;;;1.80;1.80;;;;;;;18.71;50.86;96657.16;5104334;28;20502;-59
2023/05/21 05:08:58;;;;;;;1.90;1.90;;;;;;;18.76;51.33;96677.06;5104523;28;20405;-59
2023/05/21 05:11:25;;;;;;;1.63;1.63;;;;;;;18.54;51.24;96644.28;5104332;28;20133;-59
2023/05/21 05:13:52;;;;;;;2.00;2.00;;;;;;;18.97;50.52;96682.25;5104369;28;20463;-58
2023/05/21 05:16:23;;;;;;;1.60;1.60;;;;;;;19.02;50.95;96681.75;5104177;28;20048;-59
2023/05/21 05:18:51;;;;;;;1.83;1.83;;;;;;;19.09;50.88;96684.41;5104469;28;20152;-60
2023/05/21 05:21:20;;;;;;;1.98;1.98;;;;;;;18.87;50.28;96646.78;5104030;28;20953;-59
2023/05/21 05:23:47;;;;;;;1.90;1.90;;;;;;;19.19;50.25;96682.59;5104122;28;20039;-60
2023/05/21 05:26:13;;;;;;;1.70;1.70;;;;;;;19.27;51.21;96683.97;5104176;28;20237;-59
2023/05/21 05:28:40;;;;;;;2.00;2.00;;;;;;;19.29;50.75;96690.78;5104045;28;20044;-60
2023/05/21 05:31:07;;;;;;;2.08;2.08;;;;;;;19.32;52.14;96689.91;5104203;28;20074;-60
2023/05/21 05:33:34;;;;;;;1.83;1.83;;;;;;;19.22;51.38;96688.09;5103855;28;20108;-61
2023/05/21 05:36:01;;;;;;;1.70;1.70;;;;;;;19.14;51.56;96661.41;5102513;28;20442;-60
2023/05/21 05:38:27;;;;;;;1.80;1.80;;;;;;;19.38;50.91;96693.78;5102548;28;20061;-60
2023/05/21 05:40:54;;;;;;;1.55;1.55;;;;;;;19.28;50.11;96700.44;5104386;28;20044;-60
2023/05/21 05:43:21;;;;;;;1.88;1.88;;;;;;;19.28;50.74;96669.53;5102267;28;20047;-64
2023/05/21 05:45:47;;;;;;;1.88;1.88;;;;;;;18.95;50.50;96642.59;5106143;28;20386;-61
2023/05/21 05:48:15;;;;;;;1.90;1.90;;;;;;;17.41;50.92;96424.28;5107918;28;20100;-60
2023/05/21 05:50:43;;;;;;;1.80;1.80;;;;;;;18.84;49.99;96658.09;5108114;28;20138;-62
2023/05/21 05:53:12;;;;;;;1.60;1.60;;;;;;;18.74;50.80;96651.47;5092900;27;20047;-60
2023/05/21 05:55:39;;;;;;;1.90;1.90;;;;;;;19.21;51.16;96697.75;5086856;28;20044;-60
2023/05/21 05:58:06;;;;;;;1.90;1.90;;;;;;;18.89;51.20;96689.22;5085750;28;20044;-61
2023/05/21 06:00:33;;;;;;;1.70;1.70;;;;;;;19.09;51.25;96695.63;5085531;28;20533;-60
2023/05/21 06:02:59;;;;;;;1.70;1.70;;;;;;;19.08;50.12;96699.66;5084137;28;20523;-61
2023/05/21 06:05:26;;;;;;;1.90;1.90;;;;;;;19.22;50.97;96690.91;5085589;28;20117;-61
2023/05/21 06:07:53;;;;;;;2.00;2.00;;;;;;;19.22;50.61;96688.09;5085879;28;20135;-60
2023/05/21 06:10:19;;;;;;;1.80;1.80;;;;;;;19.16;51.94;96695.47;5084182;28;20060;-60
2023/05/21 06:12:46;;;;;;;1.80;1.80;;;;;;;19.33;49.44;96702.72;5086139;28;20052;-60
2023/05/21 06:15:18;;;;;;;1.58;1.58;;;;;;;19.38;50.25;96690.97;5087419;28;20050;-60
2023/05/21 06:17:44;;;;;;;1.98;1.98;;;;;;;19.36;49.34;96693.41;5086225;28;20044;-60
2023/05/21 06:20:11;;;;;;;1.83;1.83;;;;;;;19.42;49.84;96662.81;5087242;28;20044;-60
2023/05/21 06:22:38;;;;;;;2.10;2.10;;;;;;;19.98;49.78;96688.75;5086785;28;20793;-61
2023/05/21 06:25:05;;;;;;;1.70;1.70;;;;;;;19.87;49.61;96688.22;5086959;28;20055;-60
2023/05/21 06:27:32;;;;;;;1.88;1.88;;;;;;;19.81;48.29;96602.81;5086598;28;20117;-60
2023/05/21 06:29:59;;;;;;;2.20;2.20;;;;;;;20.65;47.79;96673.66;5085091;28;20449;-60
2023/05/21 06:32:26;;;;;;;2.30;2.30;;;;;;;21.01;47.34;96677.06;5085086;28;20067;-60
2023/05/21 06:34:52;;;;;;;2.20;2.20;;;;;;;21.21;47.39;96663.59;5086869;28;20088;-61
2023/05/21 06:37:20;;;;;;;2.20;2.20;;;;;;;21.26;48.31;96665.81;5086739;28;20481;-61
2023/05/21 06:39:47;;;;;;;2.30;2.30;;;;;;;21.31;48.26;96673.72;5086642;28;20058;-62
2023/05/21 06:42:13;;;;;;;2.58;2.47;;;;;;;21.10;48.74;96640.59;5085439;28;20052;-61
2023/05/21 06:44:40;;;;;;;2.30;2.30;;;;;;;20.95;47.02;96633.75;5084853;28;20066;-61
2023/05/21 06:47:07;;;;;;;2.33;2.30;;;;;;;21.38;47.52;96667.88;5086779;28;20426;-63
2023/05/21 06:49:34;;;;;;;2.25;2.25;;;;;;;21.44;46.34;96660.44;5086786;28;20154;-61
2023/05/21 06:52:01;;;;;;;2.13;2.13;;;;;;;21.59;46.48;96675.63;5089733;28;20501;-61
2023/05/21 06:54:27;;;;;;;2.20;2.20;;;;;;;21.08;46.20;96673.25;5105684;28;20048;-60
2023/05/21 06:56:54;;;;;;;2.20;2.20;;;;;;;21.16;47.34;96680.25;5106995;28;20472;-61
2023/05/21 06:59:21;;;;;;;2.13;2.13;;;;;;;20.97;46.86;96682.03;5105298;28;20051;-61
2023/05/21 07:01:47;;;;;;;2.10;2.10;;;;;;;20.39;47.61;96629.81;5106418;28;20617;-62
2023/05/21 07:04:14;;;;;;;1.95;1.95;;;;;;;20.62;48.46;96678.19;5105503;28;20047;-61
2023/05/21 07:06:41;;;;;;;2.13;2.13;;;;;;;20.66;47.77;96689.34;5106088;28;20184;-61
2023/05/21 07:09:09;;;;;;;1.90;1.90;;;;;;;20.16;46.06;96632.84;5106419;28;20055;-61
2023/05/21 07:11:35;;;;;;;2.10;2.10;;;;;;;20.33;47.68;96687.81;5105165;28;20070;-61
2023/05/21 07:14:02;;;;;;;2.00;2.00;;;;;;;19.99;47.85;96684.69;5104847;28;20054;-60
2023/05/21 07:16:29;;;;;;;1.90;1.90;;;;;;;19.84;47.65;96700.34;5106172;28;20532;-60
2023/05/21 07:18:56;;;;;;;1.90;1.90;;;;;;;19.99;48.27;96707.19;5104857;28;20055;-61
2023/05/21 07:21:23;;;;;;;2.10;2.10;;;;;;;20.21;48.02;96680.91;5104804;28;20039;-61
2023/05/21 07:23:49;;;;;;;2.05;2.05;;;;;;;20.31;47.03;96667.81;5106178;28;20506;-61
2023/05/21 07:26:16;;;;;;;2.00;2.00;;;;;;;20.55;47.70;96688.84;5106165;28;20104;-62
2023/05/21 07:28:43;;;;;;;1.90;1.90;;;;;;;20.43;46.99;96687.56;5104688;28;20063;-61
2023/05/21 07:31:11;;;;;;;2.20;2.20;;;;;;;20.84;46.85;96695.25;5105671;28;20047;-61
2023/05/21 07:33:38;;;;;;;1.90;1.90;;;;;;;20.83;47.16;96699.31;5105900;28;20055;-61
2023/05/21 07:36:05;;;;;;;2.22;2.22;;;;;;;20.83;47.48;96688.81;5105884;28;20047;-61
2023/05/21 07:38:32;;;;;;;2.20;2.20;;;;;;;20.98;45.51;96686.41;5105849;28;20052;-61
2023/05/21 07:40:59;;;;;;;2.08;2.08;;;;;;;20.84;46.45;96689.59;5104516;28;20047;-61
2023/05/21 07:43:25;;;;;;;2.25;2.25;;;;;;;20.68;45.69;96648.25;5106295;28;20047;-61
2023/05/21 07:45:52;;;;;;;2.15;2.15;;;;;;;21.29;45.25;96681.84;5106177;28;20059;-62
2023/05/21 07:48:18;;;;;;;2.17;2.17;;;;;;;21.07;45.50;96674.50;5104405;28;20075;-60
2023/05/21 07:50:48;;;;;;;2.10;2.10;;;;;;;21.17;44.74;96648.81;5105996;28;20158;-61
2023/05/21 07:53:15;;;;;;;2.53;2.42;;;;;;;21.36;45.31;96678.81;5090749;28;20052;-61
2023/05/21 07:55:46;;;;;;;2.20;2.20;;;;;;;21.70;45.36;96693.03;5085255;28;20058;-59
2023/05/21 07:58:15;;;;;;;2.30;2.30;;;;;;;21.46;45.13;96691.78;5085059;28;20048;-59
2023/05/21 08:00:44;;;;;;;2.10;2.10;;;;;;;21.07;46.83;96618.16;5085180;28;20055;-60
2023/05/21 08:03:10;;;;;;;2.20;2.20;;;;;;;21.18;45.35;96647.59;5084207;28;20051;-61
2023/05/21 08:05:37;;;;;;;1.95;1.95;;;;;;;20.61;46.73;96667.38;5085182;28;20063;-60
2023/05/21 08:08:04;;;;;;;2.20;2.20;;;;;;;21.39;46.38;96686.34;5084644;28;20068;-60
2023/05/21 08:10:31;;;;;;;2.10;2.10;;;;;;;21.45;45.33;96655.59;5085058;28;20052;-61
2023/05/21 08:12:57;;;;;;;2.22;2.22;;;;;;;21.71;45.31;96686.13;5085096;28;20426;-61
2023/05/21 08:15:24;;;;;;;2.50;2.40;;;;;;;21.56;46.89;96689.88;5085062;28;20059;-62
2023/05/21 08:17:51;;;;;;;2.00;2.00;;;;;;;21.92;46.20;96682.66;5076182;28;20547;-61
2023/05/21 08:20:19;;;;;;;2.45;2.38;;;;;;;21.80;44.37;96657.28;5083892;28;20087;-61
2023/05/21 08:22:47;;;;;;;2.30;2.30;;;;;;;22.01;44.39;96688.41;5081323;28;20507;-61
2023/05/21 08:25:13;;;;;;;2.63;2.53;;;;;;;21.69;46.14;96688.63;5081147;28;20511;-61
2023/05/21 08:27:41;;;;;;;2.22;2.22;;;;;;;21.64;46.73;96692.00;5083088;28;20040;-61
2023/05/21 08:30:10;;;;;;;2.53;2.42;;;;;;;21.42;45.71;96685.44;5082692;28;20052;-62
2023/05/21 08:32:36;;;;;;;2.22;2.22;;;;;;;21.23;46.47;96694.91;5082582;28;20060;-59
2023/05/21 08:35:04;;;;;;;2.60;2.50;;;;;;;21.87;45.97;96680.41;5082967;28;20040;-60
2023/05/21 08:37:31;;;;;;;2.63;2.53;;;;;;;22.71;44.92;96679.53;5077127;28;20511;-62
2023/05/21 08:39:58;;;;;;;2.67;2.58;;;;;;;23.12;43.76;96681.22;5064397;28;20434;-61
2023/05/21 08:42:44;;;;;;;3.13;3.03;;;;;;;22.74;44.33;96683.44;5063374;28;20056;-61
2023/05/21 08:45:13;;;;;;;2.90;2.80;;;;;;;23.19;43.10;96681.72;5064538;28;20060;-61
2023/05/21 08:47:42;;;;;;;3.00;2.90;;;;;;;23.45;44.01;96676.72;5064042;28;20136;-60
2023/05/21 08:50:12;;;;;;;3.20;3.10;;;;;;;23.65;41.83;96680.72;5063826;28;20048;-59
2023/05/21 08:52:39;;;;;;;3.13;3.03;;;;;;;24.07;41.65;96683.91;5078067;28;20502;-59
2023/05/21 08:55:07;;;;;;;2.95;2.85;;;;;;;23.50;40.08;96662.78;5104180;28;20053;-60
2023/05/21 08:57:35;;;;;;;3.03;2.92;;;;;;;22.96;40.53;96672.94;5104171;28;20047;-60
2023/05/21 09:00:05;;;;;;;2.58;2.47;;;;;;;22.29;42.35;96636.63;5104456;28;20132;-60
2023/05/21 09:02:33;;;;;;;2.70;2.60;;;;;;;23.36;42.22;96668.19;5104509;28;20047;-60
2023/05/21 09:05:02;;;;;;;2.70;2.60;;;;;;;22.86;41.22;96669.25;5104228;28;20108;-60
2023/05/21 09:07:30;;;;;;;2.72;2.63;;;;;;;23.17;41.71;96672.13;5102485;28;20082;-62
2023/05/21 09:10:03;;;;;;;2.42;2.33;;;;;;;23.49;40.92;96669.66;5104249;28;20051;-61
2023/05/21 09:12:30;;;;;;;;;;;;;;;24.20;39.66;96664.72;5104619;28;20075;-61
2023/05/21 09:14:59;;;;;;;2.80;2.70;;;;;;;24.00;40.02;96667.22;5102600;28;19929;-61
2023/05/21 09:17:25;;;;;;;3.13;3.03;;;;;;;24.53;40.88;96665.69;5104113;28;20051;-61
2023/05/21 09:20:14;;;;;;;2.90;2.80;;;;;;;25.18;40.35;96659.56;5103263;28;20437;-61
2023/05/21 09:22:50;;;;;;;2.83;2.72;;;;;;;24.29;40.25;96673.25;5100128;28;20056;-61
2023/05/21 09:25:23;;;;;;;2.70;2.60;;;;;;;23.27;41.97;96659.66;5071961;28;20064;-60
2023/05/21 09:27:50;;;;;;;;;;;;;;;23.88;42.05;96656.78;5071741;28;20055;-61
2023/05/21 09:30:18;;;;;;;2.75;2.65;;;;;;;23.52;42.85;96659.47;5066662;28;19924;-62
2023/05/21 09:32:57;;;;;;;3.10;3.00;;;;;;;23.20;43.06;96648.59;5067455;28;20140;-63
2023/05/21 09:35:24;;;;;;;2.70;2.60;;;;;;;22.72;43.37;96635.09;5067984;28;20057;-61
2023/05/21 09:37:52;;;;;;;2.22;2.22;;;;;;;22.74;43.10;96660.84;5067295;28;20052;-60
2023/05/21 09:40:20;;;;;;;2.75;2.65;;;;;;;23.16;43.70;96653.59;5086199;28;20048;-61
2023/05/21 09:42:49;;;;;;;2.63;2.53;;;;;;;23.46;44.36;96658.47;5087555;28;20533;-60
2023/05/21 09:45:20;;;;;;;2.70;2.60;;;;;;;23.30;43.43;96597.31;5087705;28;20434;-62
2023/05/21 09:47:48;;;;;;;2.78;2.67;;;;;;;23.20;42.38;96606.22;5087774;28;20055;-61
2023/05/21 09:50:20;;;;;;;2.85;2.75;;;;;;;22.48;43.18;96604.47;5087659;28;20051;-61
2023/05/21 09:52:51;;;;;;;2.83;2.72;;;;;;;22.95;44.27;96654.41;5087103;28;20048;-61
2023/05/21 09:55:22;;;;;;;2.40;2.30;;;;;;;22.72;45.00;96632.28;5087773;28;20113;-61
2023/05/21 09:57:49;;;;;;;2.67;2.58;;;;;;;22.92;44.96;96633.50;5087327;28;20052;-60
2023/05/21 10:00:21;;;;;;;2.50;2.40;;;;;;;22.86;43.99;96657.97;5087610;28;20056;-60
2023/05/21 10:02:52;;;;;;;2.47;2.38;;;;;;;23.33;44.02;96663.47;5087475;28;20051;-61
2023/05/21 10:05:19;;;;;;;2.50;2.40;;;;;;;23.33;43.20;96652.16;5086149;28;20075;-61
2023/05/21 10:07:52;;;;;;;3.00;2.90;;;;;;;23.61;41.77;96631.22;5086149;28;20055;-61
2023/05/21 10:10:23;;;;;;;2.90;2.80;;;;;;;23.97;42.01;96651.16;5087381;28;20055;-60
2023/05/21 10:13:11;;;;;;;2.80;2.70;;;;;;;24.63;40.05;96655.97;5085484;28;20507;-61
2023/05/21 10:15:42;;;;;;;3.13;3.03;;;;;;;24.85;39.58;96597.09;5086802;28;20066;-60
2023/05/21 10:18:11;;;;;;;3.10;3.00;;;;;;;25.26;39.63;96653.06;5087218;28;20048;-59
2023/05/21 10:20:38;;;;;;;3.40;3.30;;;;;;;25.38;38.85;96659.06;5085134;28;20077;-61
2023/05/21 10:23:06;;;;;;;3.00;2.90;;;;;;;24.94;38.56;96571.56;5086827;28;20521;-60
2023/05/21 10:25:35;;;;;;;3.20;3.10;;;;;;;25.38;38.38;96650.53;5087031;28;20055;-59
2023/05/21 10:28:02;;;;;;;3.03;2.92;;;;;;;25.30;40.10;96662.22;5087092;28;20426;-61
2023/05/21 10:30:28;;;;;;;3.55;3.45;;;;;;;25.58;39.87;96650.78;5086642;28;20044;-61
2023/05/21 10:32:56;;;;;;;3.40;3.30;;;;;;;25.25;39.56;96657.19;5086046;28;20403;-62
2023/05/21 10:35:23;;;;;;;2.92;2.83;;;;;;;25.14;40.77;96651.22;5086972;28;20063;-61
2023/05/21 10:37:51;;;;;;;3.75;3.65;;;;;;;25.93;39.22;96666.06;5086835;28;20070;-60
2023/05/21 10:40:19;;;;;;;3.70;3.60;;;;;;;26.16;38.21;96671.81;5086843;28;20108;-61
2023/05/21 10:43:20;;;;;;;3.63;3.53;;;;;;;26.06;38.20;96652.47;5086742;28;20577;-62
2023/05/21 10:46:06;;;;;;;3.65;3.55;;;;;;;26.30;38.56;96659.72;5086685;28;20512;-61
2023/05/21 10:48:38;;;;;;;3.15;3.05;;;;;;;25.48;39.58;96661.41;5085879;28;20052;-60
2023/05/21 10:51:23;;;;;;;3.10;3.00;;;;;;;25.31;40.00;96666.59;5085213;28;20500;-62
2023/05/21 10:54:09;;;;;;;3.13;3.03;;;;;;;25.34;40.41;96666.97;5102668;28;20062;-61
2023/05/21 10:56:58;;;;;;;3.25;3.15;;;;;;;25.47;40.11;96664.69;5106097;28;20138;-61
2023/05/21 10:59:48;;;;;;;3.22;3.13;;;;;;;24.68;41.32;96666.69;5106020;28;20142;-60
2023/05/21 11:02:16;;;;;;;3.45;3.35;;;;;;;24.69;41.21;96605.94;5106145;28;20058;-61
2023/05/21 11:04:44;;;;;;;3.33;3.22;;;;;;;25.51;40.90;96653.97;5106656;28;20575;-61
2023/05/21 11:07:12;;;;;;;3.25;3.15;;;;;;;24.85;40.46;96665.09;5104885;28;20043;-60
2023/05/21 11:09:38;;;;;;;3.20;3.10;;;;;;;25.42;40.62;96662.53;5106233;28;20054;-61
2023/05/21 11:12:06;;;;;;;3.40;3.30;;;;;;;25.38;38.58;96622.19;5106626;28;20135;-60
2023/05/21 11:14:38;;;;;;;3.85;3.75;;;;;;;25.98;39.43;96654.06;5105156;28;20055;-61
2023/05/21 11:17:08;;;;;;;3.40;3.30;;;;;;;26.51;38.16;96647.28;5106379;28;20517;-62
2023/05/21 11:19:50;;;;;;;3.55;3.45;;;;;;;26.89;37.90;96649.34;5106223;28;20089;-61
2023/05/21 11:22:20;;;;;;;3.55;3.45;;;;;;;26.16;38.06;96648.31;5105962;28;20512;-62
2023/05/21 11:24:48;;;;;;;3.33;3.22;;;;;;;26.21;40.53;96656.16;5105078;28;20048;-61
2023/05/21 11:27:36;;;;;;;3.67;3.58;;;;;;;25.43;39.98;96601.69;5104384;28;20052;-61
2023/05/21 11:30:16;;;;;;;3.47;3.38;;;;;;;24.68;42.38;96649.69;5106736;28;20043;-61
2023/05/21 11:33:08;;;;;;;3.10;3.00;;;;;;;24.07;43.19;96660.47;5071727;28;20056;-61
2023/05/21 11:35:37;;;;;;;2.85;2.75;;;;;;;24.43;43.71;96655.66;5065528;28;20135;-61
2023/05/21 11:38:08;;;;;;;3.45;3.35;;;;;;;23.84;43.93;96613.69;5065132;28;20527;-61